createdAt,value
2018-02-15T00:02:19.181Z,10.13
2018-02-15T00:04:46.728Z,9.37
2018-02-15T00:07:14.997Z,9.77
2018-02-15T00:09:43.649Z,9.50
2018-02-15T00:12:11.116Z,10.30
2018-02-15T00:14:38.635Z,9.37
2018-02-15T00:17:06.573Z,10.33
2018-02-15T00:19:34.217Z,9.73
2018-02-15T00:22:01.715Z,9.40
2018-02-15T00:24:29.661Z,9.93
2018-02-15T00:26:57.219Z,9.97
2018-02-15T00:29:25.478Z,9.37
2018-02-15T00:31:53.466Z,9.73
2018-02-15T00:34:21.139Z,10.00
2018-02-15T00:36:48.638Z,9.63
2018-02-15T00:39:16.474Z,9.73
2018-02-15T00:41:43.971Z,9.30
2018-02-15T00:44:11.470Z,9.63
2018-02-15T00:46:39.262Z,9.23
2018-02-15T00:49:06.776Z,9.87
2018-02-15T00:51:35.181Z,10.03
2018-02-15T00:54:03.032Z,9.50
2018-02-15T00:56:30.531Z,8.90
2018-02-15T00:58:58.030Z,9.63
2018-02-15T01:01:25.591Z,9.20
2018-02-15T01:03:53.857Z,10.03
2018-02-15T01:06:21.450Z,9.37
2018-02-15T01:08:49.323Z,9.37
2018-02-15T01:11:16.825Z,9.37
2018-02-15T01:13:44.341Z,8.77
2018-02-15T01:16:11.865Z,8.80
2018-02-15T01:18:39.382Z,9.40
2018-02-15T01:21:07.202Z,8.07
2018-02-15T01:23:34.703Z,9.40
2018-02-15T01:26:02.216Z,9.17
2018-02-15T01:28:30.530Z,9.27
2018-02-15T01:30:57.996Z,9.27
2018-02-15T01:33:25.811Z,9.17
2018-02-15T01:35:54.072Z,8.57
2018-02-15T01:38:22.339Z,9.23
2018-02-15T01:40:49.898Z,8.30
2018-02-15T01:43:17.398Z,8.80
2018-02-15T01:45:45.163Z,8.73
2018-02-15T01:48:12.639Z,8.90
2018-02-15T01:50:40.155Z,9.30
2018-02-15T01:53:08.422Z,9.17
2018-02-15T01:55:35.920Z,9.63
2018-02-15T01:58:03.689Z,9.07
2018-02-15T02:00:31.349Z,8.57
2018-02-15T02:02:58.867Z,8.70
2018-02-15T02:05:27.560Z,8.63
2018-02-15T02:07:55.241Z,8.60
2018-02-15T02:10:22.900Z,8.80
2018-02-15T02:12:50.434Z,9.07
2018-02-15T02:15:18.708Z,9.03
2018-02-15T02:17:46.654Z,9.47
2018-02-15T02:20:14.956Z,8.97
2018-02-15T02:22:43.227Z,9.27
2018-02-15T02:25:10.734Z,8.53
2018-02-15T02:27:38.461Z,8.47
2018-02-15T02:30:06.258Z,8.37
2018-02-15T02:32:33.810Z,8.47
2018-02-15T02:35:01.473Z,8.73
2018-02-15T02:37:29.178Z,8.37
2018-02-15T02:39:56.679Z,8.87
2018-02-15T02:42:24.765Z,8.67
2018-02-15T02:44:52.264Z,8.50
2018-02-15T02:47:19.767Z,8.60
2018-02-15T02:49:47.554Z,8.43
2018-02-15T02:52:15.066Z,9.23
2018-02-15T02:54:43.321Z,8.10
2018-02-15T02:57:10.821Z,8.53
2018-02-15T02:59:38.332Z,9.17
2018-02-15T03:02:06.156Z,8.03
2018-02-15T03:04:33.693Z,8.30
2018-02-15T03:07:01.185Z,8.10
2018-02-15T03:09:28.734Z,8.53
2018-02-15T03:11:56.225Z,9.03
2018-02-15T03:14:23.718Z,8.47
2018-02-15T03:16:51.408Z,8.07
2018-02-15T03:19:18.899Z,9.30
2018-02-15T03:21:46.381Z,7.93
2018-02-15T03:24:14.876Z,8.23
2018-02-15T03:26:42.366Z,8.23
2018-02-15T03:29:10.191Z,8.97
2018-02-15T03:31:37.696Z,8.80
2018-02-15T03:34:05.184Z,8.73
2018-02-15T03:36:32.783Z,8.60
2018-02-15T03:39:00.283Z,9.27
2018-02-15T03:41:27.778Z,7.37
2018-02-15T03:43:55.284Z,8.27
2018-02-15T03:46:22.815Z,8.43
2018-02-15T03:48:50.384Z,8.30
2018-02-15T03:51:17.980Z,8.70
2018-02-15T03:53:45.775Z,7.90
2018-02-15T03:56:14.074Z,8.10
2018-02-15T03:58:41.629Z,8.93
2018-02-15T04:01:09.496Z,8.80
2018-02-15T04:03:37.031Z,7.63
2018-02-15T04:06:04.601Z,8.30
2018-02-15T04:08:32.262Z,8.10
2018-02-15T04:10:59.770Z,8.37
2018-02-15T04:13:27.544Z,8.83
2018-02-15T04:15:55.136Z,8.07
2018-02-15T04:18:24.141Z,8.60
2018-02-15T04:20:52.529Z,8.73
2018-02-15T04:23:20.043Z,8.83
2018-02-15T04:25:47.860Z,8.13
2018-02-15T04:28:15.355Z,8.33
2018-02-15T04:30:42.847Z,8.30
2018-02-15T04:33:11.124Z,8.00
2018-02-15T04:35:39.438Z,7.97
2018-02-15T04:38:07.389Z,8.40
2018-02-15T04:40:34.935Z,7.73
2018-02-15T04:43:03.326Z,8.57
2018-02-15T04:45:31.199Z,8.37
2018-02-15T04:47:58.694Z,8.50
2018-02-15T04:50:26.196Z,8.37
2018-02-15T04:52:54.085Z,7.80
2018-02-15T04:55:21.573Z,7.90
2018-02-15T04:57:49.087Z,8.27
2018-02-15T05:00:16.708Z,8.60
2018-02-15T05:02:45.713Z,8.77
2018-02-15T05:05:13.499Z,7.70
2018-02-15T05:07:41.033Z,8.50
2018-02-15T05:10:08.704Z,7.63
2018-02-15T05:12:36.310Z,7.37
2018-02-15T05:15:03.821Z,8.20
2018-02-15T05:17:31.709Z,7.67
2018-02-15T05:19:59.385Z,8.63
2018-02-15T05:22:26.879Z,7.80
2018-02-15T05:24:54.386Z,8.13
2018-02-15T05:27:22.077Z,7.33
2018-02-15T05:29:49.923Z,7.80
2018-02-15T05:32:17.420Z,7.90
2018-02-15T05:34:45.037Z,7.57
2018-02-15T05:37:12.918Z,7.97
2018-02-15T05:39:40.544Z,7.60
2018-02-15T05:42:08.153Z,8.23
2018-02-15T05:44:35.700Z,7.47
2018-02-15T05:47:03.239Z,7.83
2018-02-15T05:49:31.028Z,7.90
2018-02-15T05:51:58.522Z,7.20
2018-02-15T05:54:26.027Z,7.60
2018-02-15T05:56:53.872Z,7.57
2018-02-15T05:59:22.348Z,7.53
2018-02-15T06:01:50.892Z,7.50
2018-02-15T06:04:18.423Z,8.80
2018-02-15T06:06:45.962Z,8.70
2018-02-15T06:09:13.495Z,8.27
2018-02-15T06:11:41.073Z,7.50
2018-02-15T06:14:09.340Z,8.13
2018-02-15T06:16:37.292Z,8.73
2018-02-15T06:19:04.801Z,8.23
2018-02-15T06:21:32.550Z,6.83
2018-02-15T06:24:00.270Z,8.33
2018-02-15T06:26:27.764Z,7.57
2018-02-15T06:28:56.120Z,8.60
2018-02-15T06:31:23.905Z,8.10
2018-02-15T06:33:52.170Z,7.97
2018-02-15T06:36:20.448Z,8.00
2018-02-15T06:38:49.062Z,9.10
2018-02-15T06:41:16.696Z,8.63
2018-02-15T06:43:44.211Z,8.97
2018-02-15T06:46:12.237Z,8.27
2018-02-15T06:48:39.951Z,8.67
2018-02-15T06:51:07.640Z,7.97
2018-02-15T06:53:36.473Z,8.17
2018-02-15T06:56:04.143Z,8.57
2018-02-15T06:58:31.660Z,8.40
2018-02-15T07:01:00.557Z,8.13
2018-02-15T07:03:28.339Z,8.43
2018-02-15T07:05:55.980Z,8.67
2018-02-15T07:08:24.105Z,8.50
2018-02-15T07:10:51.816Z,7.93
2018-02-15T07:13:19.446Z,8.70
2018-02-15T07:15:47.467Z,8.70
2018-02-15T07:18:15.576Z,8.60
2018-02-15T07:20:43.963Z,7.90
2018-02-15T07:23:12.205Z,8.67
2018-02-15T07:25:40.148Z,8.70
2018-02-15T07:28:07.746Z,8.03
2018-02-15T07:30:35.264Z,8.40
2018-02-15T07:33:02.780Z,8.50
2018-02-15T07:35:30.270Z,8.43
2018-02-15T07:37:58.556Z,8.47
2018-02-15T07:40:26.061Z,8.20
2018-02-15T07:42:53.571Z,8.67
2018-02-15T07:45:21.227Z,7.83
2018-02-15T07:47:48.761Z,8.90
2018-02-15T07:50:16.258Z,8.43
2018-02-15T07:52:43.760Z,8.83
2018-02-15T07:55:11.300Z,9.57
2018-02-15T07:57:38.869Z,8.77
2018-02-15T08:00:06.507Z,9.07
2018-02-15T08:02:34.243Z,8.93
2018-02-15T08:05:01.726Z,9.30
2018-02-15T08:07:29.239Z,8.93
2018-02-15T08:09:57.625Z,9.70
2018-02-15T08:12:26.002Z,9.70
2018-02-15T08:14:53.521Z,9.87
2018-02-15T08:17:21.032Z,9.77
2018-02-15T08:19:48.548Z,9.23
2018-02-15T08:22:16.059Z,9.87
2018-02-15T08:24:43.563Z,10.17
2018-02-15T08:27:11.082Z,10.27
2018-02-15T08:29:38.690Z,10.43
2018-02-15T08:32:06.298Z,10.83
2018-02-15T08:34:33.814Z,10.50
2018-02-15T08:37:01.324Z,10.33
2018-02-15T08:39:28.824Z,10.87
2018-02-15T08:41:56.310Z,11.57
2018-02-15T08:44:23.841Z,10.80
2018-02-15T08:46:52.124Z,11.17
2018-02-15T08:49:20.382Z,11.00
2018-02-15T08:51:47.907Z,12.50
2018-02-15T08:54:15.415Z,12.07
2018-02-15T08:56:43.677Z,12.73
2018-02-15T08:59:11.222Z,11.87
2018-02-15T09:01:38.744Z,12.20
2018-02-15T09:04:06.287Z,11.83
2018-02-15T09:06:33.813Z,12.10
2018-02-15T09:09:01.312Z,12.87
2018-02-15T09:11:28.819Z,12.17
2018-02-15T09:13:56.332Z,12.60
2018-02-15T09:16:23.831Z,11.57
2018-02-15T09:18:51.334Z,12.10
2018-02-15T09:21:18.958Z,11.50
2018-02-15T09:23:46.456Z,12.57
2018-02-15T09:26:13.970Z,13.37
2018-02-15T09:28:41.479Z,12.37
2018-02-15T09:31:09.152Z,12.80
2018-02-15T09:33:36.710Z,13.03
2018-02-15T09:36:04.240Z,12.10
2018-02-15T09:38:31.838Z,12.83
2018-02-15T09:40:59.343Z,12.90
2018-02-15T09:43:26.939Z,12.67
2018-02-15T09:45:54.434Z,12.80
2018-02-15T09:48:21.939Z,12.67
2018-02-15T09:50:49.456Z,13.07
2018-02-15T09:53:16.956Z,12.60
2018-02-15T09:55:44.468Z,13.70
2018-02-15T09:58:12.010Z,13.40
2018-02-15T10:00:39.534Z,12.60
2018-02-15T10:03:07.042Z,13.20
2018-02-15T10:05:34.559Z,13.90
2018-02-15T10:08:02.067Z,12.70
2018-02-15T10:10:29.542Z,12.77
2018-02-15T10:12:57.831Z,11.93
2018-02-15T10:15:26.144Z,12.47
2018-02-15T10:17:53.664Z,12.40
2018-02-15T10:20:21.206Z,12.63
2018-02-15T10:22:49.482Z,11.93
2018-02-15T10:25:17.755Z,12.90
2018-02-15T10:27:45.388Z,12.10
2018-02-15T10:30:13.169Z,12.63
2018-02-15T10:32:40.677Z,13.27
2018-02-15T10:35:08.185Z,12.27
2018-02-15T10:37:35.692Z,12.50
2018-02-15T10:40:03.197Z,12.77
2018-02-15T10:42:30.716Z,13.63
2018-02-15T10:44:58.216Z,12.30
2018-02-15T10:47:26.503Z,13.17
2018-02-15T10:49:54.924Z,12.33
2018-02-15T10:52:22.425Z,13.83
2018-02-15T10:54:49.994Z,12.73
2018-02-15T10:57:17.530Z,13.57
2018-02-15T10:59:45.048Z,13.20
2018-02-15T11:02:18.554Z,12.90
2018-02-15T11:04:51.743Z,12.00
2018-02-15T11:07:19.264Z,13.47
2018-02-15T11:09:46.790Z,14.77
2018-02-15T11:12:14.305Z,14.23
2018-02-15T11:14:42.599Z,15.37
2018-02-15T11:17:10.107Z,13.67
2018-02-15T11:19:38.753Z,14.03
2018-02-15T11:22:06.275Z,13.53
2018-02-15T11:24:33.787Z,14.40
2018-02-15T11:27:01.309Z,14.17
2018-02-15T11:29:28.855Z,15.30
2018-02-15T11:31:56.334Z,14.43
2018-02-15T11:34:23.862Z,15.23
2018-02-15T11:36:51.405Z,15.47
2018-02-15T11:39:18.915Z,15.67
2018-02-15T11:41:46.496Z,14.67
2018-02-15T11:44:14.024Z,14.50
2018-02-15T11:46:41.544Z,14.77
2018-02-15T11:49:09.065Z,14.53
2018-02-15T11:51:36.591Z,15.53
2018-02-15T11:54:04.088Z,15.53
2018-02-15T11:56:31.609Z,15.47
2018-02-15T11:58:59.129Z,16.30
2018-02-15T12:01:26.620Z,15.93
2018-02-15T12:03:54.304Z,15.10
2018-02-15T12:06:21.845Z,15.47
2018-02-15T12:08:49.340Z,14.93
2018-02-15T12:11:16.861Z,15.93
2018-02-15T12:13:46.714Z,17.17
2018-02-15T12:16:14.205Z,18.23
2018-02-15T12:18:42.478Z,16.97
2018-02-15T12:21:10.071Z,17.00
2018-02-15T12:23:37.526Z,17.43
2018-02-15T12:26:05.034Z,18.17
2018-02-15T12:28:32.559Z,18.13
2018-02-15T12:31:00.046Z,19.23
2018-02-15T12:33:27.549Z,18.80
2018-02-15T12:35:55.083Z,19.77
2018-02-15T12:38:23.351Z,19.47
2018-02-15T12:40:51.721Z,20.97
2018-02-15T12:43:19.209Z,19.57
2018-02-15T12:45:46.702Z,22.13
2018-02-15T12:48:14.218Z,22.77
2018-02-15T12:50:41.764Z,24.07
2018-02-15T12:53:09.262Z,23.00
2018-02-15T12:55:36.791Z,23.90
2018-02-15T12:58:05.089Z,22.20
2018-02-15T13:37:30.474Z,21.83
2018-02-15T13:39:57.997Z,23.93
2018-02-15T13:42:25.515Z,21.70
2018-02-15T13:44:53.079Z,21.83
2018-02-15T13:47:21.393Z,22.57
2018-02-15T13:49:48.887Z,21.47
2018-02-15T13:52:16.424Z,22.43
2018-02-15T13:54:44.016Z,22.47
2018-02-15T13:57:11.523Z,22.90
2018-02-15T13:59:39.080Z,21.70
2018-02-15T14:02:06.582Z,21.37
2018-02-15T14:04:34.094Z,21.60
2018-02-15T14:07:01.618Z,22.47
2018-02-15T14:09:29.128Z,21.23
2018-02-15T14:11:57.637Z,22.63
2018-02-15T14:14:25.151Z,22.77
2018-02-15T14:16:52.661Z,23.77
2018-02-15T14:19:20.211Z,22.40
2018-02-15T14:21:47.735Z,22.53
2018-02-15T14:24:15.237Z,23.30
2018-02-15T14:26:42.757Z,22.47
2018-02-15T14:29:10.255Z,23.43
2018-02-15T14:31:37.757Z,21.90
2018-02-15T14:34:05.251Z,22.37
2018-02-15T14:36:32.770Z,22.57
2018-02-15T14:39:00.266Z,21.57
2018-02-15T14:41:27.788Z,22.83
2018-02-15T14:43:55.643Z,23.00
2018-02-15T14:46:23.147Z,21.47
2018-02-15T14:48:50.668Z,22.30
2018-02-15T14:51:18.191Z,22.17
2018-02-15T14:53:46.505Z,21.70
2018-02-15T14:56:13.993Z,22.03
2018-02-15T14:58:41.518Z,22.07
2018-02-15T15:01:09.009Z,22.13
2018-02-15T15:03:36.504Z,21.10
2018-02-15T15:06:04.804Z,21.50
2018-02-15T15:08:32.304Z,20.10
2018-02-15T15:10:59.814Z,22.00
2018-02-15T15:13:27.378Z,21.97
2018-02-15T15:15:54.917Z,22.60
2018-02-15T15:18:23.203Z,23.50
2018-02-15T15:20:51.493Z,21.47
2018-02-15T15:23:19.006Z,21.53
2018-02-15T15:25:46.506Z,20.70
2018-02-15T15:28:14.025Z,21.70
2018-02-15T15:30:41.631Z,21.67
2018-02-15T15:33:09.692Z,22.37
2018-02-15T15:35:37.243Z,22.90
2018-02-15T15:38:05.497Z,22.23
2018-02-15T15:40:32.989Z,24.87
2018-02-15T15:43:00.502Z,23.13
2018-02-15T15:45:28.074Z,22.00
2018-02-15T15:47:56.339Z,24.80
2018-02-15T15:50:23.855Z,24.73
2018-02-15T15:52:51.415Z,24.47
2018-02-15T15:55:18.925Z,23.83
2018-02-15T15:57:47.527Z,24.53
2018-02-15T16:00:15.156Z,25.60
2018-02-15T16:02:42.687Z,25.60
2018-02-15T16:05:10.631Z,27.50
2018-02-15T16:07:38.112Z,24.40
2018-02-15T16:10:05.623Z,25.93
2018-02-15T16:12:34.344Z,26.43
2018-02-15T16:15:02.977Z,26.57
2018-02-15T16:17:30.478Z,26.13
2018-02-15T16:19:58.013Z,26.13
2018-02-15T16:22:26.177Z,27.40
2018-02-15T16:24:54.460Z,27.90
2018-02-15T16:27:21.976Z,28.07
2018-02-15T16:29:49.473Z,28.17
2018-02-15T16:32:17.746Z,27.87
2018-02-15T16:34:46.116Z,26.23
2018-02-15T16:37:14.378Z,27.53
2018-02-15T16:39:41.916Z,27.73
2018-02-15T16:42:09.436Z,28.53
2018-02-15T16:44:36.967Z,27.50
2018-02-15T16:47:05.244Z,29.90
2018-02-15T16:49:33.540Z,31.17
2018-02-15T16:52:01.067Z,29.27
2018-02-15T16:54:28.578Z,28.47
2018-02-15T16:56:57.007Z,28.87
2018-02-15T16:59:24.548Z,29.33
2018-02-15T17:01:52.064Z,29.30
2018-02-15T17:04:19.982Z,29.87
2018-02-15T17:06:47.496Z,28.27
2018-02-15T17:09:15.012Z,28.90
2018-02-15T17:11:42.528Z,29.17
2018-02-15T17:14:10.184Z,29.20
2018-02-15T17:16:37.688Z,30.23
2018-02-15T17:19:05.983Z,29.60
2018-02-15T17:21:34.005Z,31.03
2018-02-15T17:24:01.517Z,29.17
2018-02-15T17:26:29.875Z,33.30
2018-02-15T17:28:58.360Z,31.30
2018-02-15T17:31:26.630Z,30.23
2018-02-15T17:33:54.950Z,30.47
2018-02-15T17:36:22.477Z,29.90
2018-02-15T17:38:50.754Z,30.83
2018-02-15T17:41:18.719Z,29.70
2018-02-15T17:43:46.213Z,31.07
2018-02-15T17:46:13.719Z,32.37
2018-02-15T17:48:42.107Z,29.70
2018-02-15T17:51:10.385Z,31.93
2018-02-15T17:53:38.735Z,31.10
2018-02-15T17:56:06.282Z,31.07
2018-02-15T17:58:33.813Z,31.87
2018-02-15T18:01:01.340Z,32.07
2018-02-15T18:03:29.639Z,31.50
2018-02-15T18:05:57.159Z,31.37
2018-02-15T18:08:25.502Z,32.37
2018-02-15T18:10:53.069Z,30.87
2018-02-15T18:13:20.612Z,31.93
2018-02-15T18:15:48.107Z,31.13
2018-02-15T18:18:16.414Z,31.70
2018-02-15T18:20:43.941Z,33.00
2018-02-15T18:23:12.240Z,31.60
2018-02-15T18:25:39.829Z,31.63
2018-02-15T18:28:07.374Z,31.90
2018-02-15T18:30:34.909Z,33.60
2018-02-15T18:33:02.494Z,30.03
2018-02-15T18:35:30.018Z,31.10
2018-02-15T18:37:58.360Z,31.37
2018-02-15T18:40:26.316Z,30.87
2018-02-15T18:42:53.852Z,28.80
2018-02-15T18:45:21.417Z,30.03
2018-02-15T18:47:48.957Z,30.63
2018-02-15T18:50:17.147Z,29.37
2018-02-15T18:52:44.698Z,28.47
2018-02-15T18:55:12.268Z,28.03
2018-02-15T18:57:39.811Z,29.37
2018-02-15T19:00:07.402Z,27.73
2018-02-15T19:02:34.953Z,26.97
2018-02-15T19:05:02.524Z,27.90
2018-02-15T19:07:30.623Z,27.27
2018-02-15T19:09:58.157Z,26.27
2018-02-15T19:12:25.722Z,27.50
2018-02-15T19:14:53.251Z,25.00
2018-02-15T19:17:20.858Z,26.57
2018-02-15T19:19:48.416Z,27.40
2018-02-15T19:22:15.956Z,27.80
2018-02-15T19:24:43.539Z,26.73
2018-02-15T19:27:11.104Z,26.50
2018-02-15T19:29:38.673Z,24.57
2018-02-15T19:32:07.023Z,25.30
2018-02-15T19:34:34.578Z,23.97
2018-02-15T19:37:02.143Z,24.53
2018-02-15T19:39:29.723Z,25.20
2018-02-15T19:41:58.022Z,24.47
2018-02-15T19:44:25.570Z,26.07
2018-02-15T19:46:53.948Z,25.10
2018-02-15T19:49:21.562Z,26.10
2018-02-15T19:51:49.143Z,25.67
2018-02-15T19:54:16.838Z,22.87
2018-02-15T19:56:44.431Z,23.80
2018-02-15T19:59:11.996Z,23.53
2018-02-15T20:01:39.585Z,23.73
2018-02-15T20:04:09.129Z,24.87
2018-02-15T20:06:36.903Z,25.23
2018-02-15T20:09:04.500Z,23.17
2018-02-15T20:11:32.080Z,24.67
2018-02-15T20:13:59.642Z,21.77
2018-02-15T20:16:27.238Z,24.07
2018-02-15T20:18:54.769Z,24.30
2018-02-15T20:21:23.091Z,22.73
2018-02-15T20:23:50.787Z,21.90
2018-02-15T20:26:24.044Z,22.60
2018-02-15T20:28:51.647Z,22.73
2018-02-15T20:31:19.197Z,21.73
2018-02-15T20:33:48.316Z,22.17
2018-02-15T20:36:16.648Z,20.60
2018-02-15T20:38:50.736Z,19.23
2018-02-15T20:41:18.524Z,19.57
2018-02-15T20:43:46.059Z,18.27
2018-02-15T20:46:13.610Z,18.83
2018-02-15T20:48:41.299Z,20.40
2018-02-15T20:51:14.548Z,20.83
2018-02-15T20:53:48.477Z,18.53
2018-02-15T20:56:16.064Z,20.20
2018-02-15T20:58:44.016Z,18.77
2018-02-15T21:01:12.604Z,18.60
2018-02-15T21:03:40.215Z,18.77
2018-02-15T21:06:07.823Z,19.17
2018-02-15T21:08:35.456Z,18.10
2018-02-15T21:11:03.447Z,19.87
2018-02-15T21:13:31.364Z,18.60
2018-02-15T21:15:59.743Z,19.57
2018-02-15T21:18:27.300Z,17.97
2018-02-15T21:20:55.990Z,16.37
2018-02-15T21:23:23.609Z,17.83
2018-02-15T21:25:51.226Z,18.80
2018-02-15T21:28:19.172Z,18.33
2018-02-15T21:30:47.532Z,18.47
2018-02-15T21:33:15.192Z,19.43
2018-02-15T21:35:43.989Z,18.20
2018-02-15T21:38:11.558Z,19.13
2018-02-15T21:40:39.892Z,19.30
2018-02-15T21:43:07.413Z,19.13
2018-02-15T21:45:34.914Z,18.97
2018-02-15T21:48:02.771Z,18.67
2018-02-15T21:50:30.424Z,18.83
2018-02-15T21:52:57.925Z,18.03
2018-02-15T21:55:25.427Z,20.23
2018-02-15T21:57:52.940Z,19.27
2018-02-15T22:00:20.944Z,18.00
2018-02-15T22:02:48.473Z,19.93
2018-02-15T22:05:15.963Z,18.80
2018-02-15T22:07:43.835Z,18.37
2018-02-15T22:10:11.348Z,17.97
2018-02-15T22:12:38.848Z,18.30
2018-02-15T22:15:06.344Z,18.83
2018-02-15T22:17:33.861Z,16.93
2018-02-15T22:20:01.857Z,18.03
2018-02-15T22:22:29.376Z,17.00
2018-02-15T22:24:57.639Z,16.93
2018-02-15T22:27:25.416Z,15.77
2018-02-15T22:29:53.702Z,16.50
2018-02-15T22:32:21.227Z,15.47
2018-02-15T22:34:48.761Z,14.37
2018-02-15T22:37:16.260Z,14.67
2018-02-15T22:39:44.868Z,14.13
2018-02-15T22:42:12.365Z,14.93
2018-02-15T22:44:39.859Z,13.90
2018-02-15T22:47:08.171Z,13.27
2018-02-15T22:49:35.676Z,13.73
2018-02-15T22:52:03.570Z,14.43
2018-02-15T22:54:31.075Z,15.13
2018-02-15T22:56:58.586Z,14.70
2018-02-15T22:59:26.858Z,14.97
2018-02-15T23:01:55.160Z,14.30
2018-02-15T23:04:22.945Z,13.47
2018-02-15T23:06:50.442Z,13.77
2018-02-15T23:09:18.003Z,13.43
2018-02-15T23:11:46.275Z,12.63
2018-02-15T23:14:13.772Z,12.50
2018-02-15T23:16:41.609Z,11.47
2018-02-15T23:19:09.876Z,11.53
2018-02-15T23:21:37.380Z,12.40
2018-02-15T23:24:04.883Z,11.37
2018-02-15T23:26:32.409Z,11.60
2018-02-15T23:29:00.243Z,10.63
2018-02-15T23:31:27.730Z,10.87
2018-02-15T23:33:55.234Z,10.07
2018-02-15T23:36:23.021Z,9.93
2018-02-15T23:38:50.559Z,8.97
2018-02-15T23:41:18.105Z,10.23
2018-02-15T23:43:45.609Z,10.30
2018-02-15T23:46:13.097Z,12.07
2018-02-15T23:48:40.871Z,10.23
2018-02-15T23:51:08.358Z,9.93
2018-02-15T23:53:36.606Z,10.30
2018-02-15T23:56:04.122Z,9.30
2018-02-15T23:58:31.675Z,10.43
